English version
lugares datos climáticos artículos

datos de Mairena del Aljarafe, Sevilla, España
Año Mes Dia Mostrar

  Fecha       hora        Temp.ext.    Hum.ext.  Dir.Viento   Vel.Viento  Presion al NM   T.int. Prec.hoy 

   19-04-2021    18:30      23.8º(-1.9)     41%      247(SW)      9.7 km/h    1015.3 hpa     24.1º    0.0 mm
   19-04-2021    18:25      23.9º(-1.7)     42%      270 (W)      9.7 km/h    1015.2 hpa     24.1º    0.0 mm
   19-04-2021    18:20      24.2º(-1.2)     43%      270 (W)      9.7 km/h    1015.2 hpa     24.1º    0.0 mm
   19-04-2021    18:15      24.2º(-1.0)     44%      270 (W)      8.0 km/h    1015.2 hpa     24.1º    0.0 mm
   19-04-2021    18:10      24.3º(-0.4)     43%      247(SW)      8.0 km/h    1015.3 hpa     24.1º    0.0 mm
   19-04-2021    18:05      24.5º(+0.3)     42%      247(SW)      6.4 km/h    1015.3 hpa     24.1º    0.0 mm
   19-04-2021    18:00      24.3º(+0.0)     41%      225(SW)      6.4 km/h    1015.4 hpa     24.1º    0.0 mm
   19-04-2021    17:55      24.4º(-0.3)     42%      247(SW)      9.7 km/h    1015.4 hpa     24.1º    0.0 mm
   19-04-2021    17:50      24.3º(-0.5)     44%      247(SW)      6.4 km/h    1015.6 hpa     24.1º    0.0 mm
   19-04-2021    17:45      24.1º(-0.6)     45%      270 (W)      9.7 km/h    1015.5 hpa     24.1º    0.0 mm
   19-04-2021    17:40      24.2º(-0.0)     45%      270 (W)      9.7 km/h    1015.5 hpa     24.1º    0.0 mm
   19-04-2021    17:35      24.2º(-0.0)     45%      247(SW)      9.7 km/h    1015.6 hpa     24.1º    0.0 mm
   19-04-2021    17:30      24.3º(-0.0)     44%      270 (W)      9.7 km/h    1015.6 hpa     24.1º    0.0 mm
   19-04-2021    17:25      24.6º(+0.4)     44%      270 (W)      6.4 km/h    1015.7 hpa     24.1º    0.0 mm
   19-04-2021    17:20      24.4º(+0.2)     46%      270 (W)      9.7 km/h    1015.8 hpa     24.1º    0.0 mm
   19-04-2021    17:15      24.4º(+0.1)     46%      270 (W)      8.0 km/h    1015.8 hpa     24.1º    0.0 mm
   19-04-2021    17:10      24.3º(-0.6)     48%      270 (W)      9.7 km/h    1015.8 hpa     24.1º    0.0 mm
   19-04-2021    17:05      24.2º(-0.9)     47%      270 (W)      8.0 km/h    1015.9 hpa     24.1º    0.0 mm
   19-04-2021    17:00      24.3º(-0.8)     46%      270 (W)      8.0 km/h    1015.9 hpa     24.1º    0.0 mm
   19-04-2021    16:55      24.3º(-0.8)     47%      270 (W)      8.0 km/h    1016.0 hpa     24.1º    0.0 mm
   19-04-2021    16:50      24.2º(-0.7)     48%      270 (W)      6.4 km/h    1016.0 hpa     24.1º    0.0 mm
   19-04-2021    16:45      24.2º(-0.9)     48%      270 (W)      9.7 km/h    1016.0 hpa     24.1º    0.0 mm
   19-04-2021    16:40      24.2º(-1.0)     48%      247(SW)      8.0 km/h    1016.1 hpa     24.1º    0.0 mm
   19-04-2021    16:35      24.2º(-0.7)     50%      270 (W)      8.0 km/h    1016.2 hpa     24.1º    0.0 mm
   19-04-2021    16:30      24.3º(-0.5)     49%      270 (W)      8.0 km/h    1016.3 hpa     24.0º    0.0 mm
   19-04-2021    16:25      24.4º(-0.7)     49%      270 (W)      8.0 km/h    1016.4 hpa     24.0º    0.0 mm
   19-04-2021    16:20      24.3º(-0.9)     50%      270 (W)      6.4 km/h    1016.5 hpa     24.0º    0.0 mm
   19-04-2021    16:15      24.3º(-0.8)     50%      270 (W)     11.3 km/h    1016.6 hpa     24.0º    0.0 mm
   19-04-2021    16:10      24.4º(-0.5)     49%      270 (W)      4.8 km/h    1016.6 hpa     24.0º    0.0 mm
   19-04-2021    16:05      24.2º(-0.4)     49%      270 (W)     11.3 km/h    1016.5 hpa     24.0º    0.0 mm
   19-04-2021    16:00      24.3º(-0.1)     48%      225(SW)      4.8 km/h    1016.5 hpa     23.9º    0.0 mm
   19-04-2021    15:55      24.1º(-0.3)     47%      270 (W)      8.0 km/h    1016.6 hpa     23.9º    0.0 mm
   19-04-2021    15:50      24.1º(-0.5)     48%      270 (W)      9.7 km/h    1016.6 hpa     23.9º    0.0 mm
   19-04-2021    15:45      24.3º(-0.3)     48%      270 (W)      6.4 km/h    1016.6 hpa     23.9º    0.0 mm
   19-04-2021    15:40      24.3º(-0.0)     47%      270 (W)      8.0 km/h    1016.7 hpa     23.8º    0.0 mm
   19-04-2021    15:35      24.2º(-0.0)     48%      270 (W)      8.0 km/h    1016.8 hpa     23.8º    0.0 mm
   19-04-2021    15:30      24.2º(+0.1)     49%      270 (W)      6.4 km/h    1016.8 hpa     23.8º    0.0 mm
   19-04-2021    15:25      24.1º(+0.2)     48%      270 (W)      8.0 km/h    1017.0 hpa     23.8º    0.0 mm
   19-04-2021    15:20      23.9º(+0.1)     47%      270 (W)      4.8 km/h    1017.0 hpa     23.7º    0.0 mm
   19-04-2021    15:15      23.9º(-0.3)     47%      270 (W)      8.0 km/h    1016.8 hpa     23.7º    0.0 mm
   19-04-2021    15:10      24.2º(+0.1)     47%      270 (W)      8.0 km/h    1017.0 hpa     23.7º    0.0 mm
   19-04-2021    15:05      24.5º(+0.3)     45%         -         0.0 km/h    1017.0 hpa     23.7º    0.0 mm
   19-04-2021    15:00      24.4º(+0.2)     45%      225(SW)      3.2 km/h    1017.1 hpa     23.6º    0.0 mm
   19-04-2021    14:55      24.2º(+0.4)     46%      247(SW)      3.2 km/h    1017.1 hpa     23.6º    0.0 mm
   19-04-2021    14:50      23.9º(+0.3)     46%      225(SW)      3.2 km/h    1017.2 hpa     23.6º    0.0 mm
   19-04-2021    14:45      23.7º(+0.2)     47%      270 (W)      3.2 km/h    1017.4 hpa     23.6º    0.0 mm
   19-04-2021    14:40      23.7º(+0.5)     46%      270 (W)      6.4 km/h    1017.4 hpa     23.6º    0.0 mm
   19-04-2021    14:35      23.9º(+0.7)     46%      270 (W)      6.4 km/h    1017.5 hpa     23.6º    0.0 mm
   19-04-2021    14:30      23.5º(+0.6)     49%      202 (S)      1.6 km/h    1017.6 hpa     23.5º    0.0 mm
   19-04-2021    14:25      23.1º(+0.6)     49%      247(SW)      4.8 km/h    1017.8 hpa     23.5º    0.0 mm
   19-04-2021    14:20      23.1º(+1.2)     47%      270 (W)      8.0 km/h    1017.8 hpa     23.5º    0.0 mm
   19-04-2021    14:15      23.2º(+1.4)     50%      270 (W)      1.6 km/h    1017.9 hpa     23.5º    0.0 mm
   19-04-2021    14:10      23.1º(+1.2)     52%         -         0.0 km/h    1018.0 hpa     23.5º    0.0 mm
   19-04-2021    14:05      23.1º(+1.4)     51%      225(SW)      1.6 km/h    1018.0 hpa     23.5º    0.0 mm
   19-04-2021    14:00      22.7º(+1.0)     52%         -         0.0 km/h    1018.1 hpa     23.5º    0.0 mm
   19-04-2021    13:55      22.2º(+0.4)     55%      270 (W)      1.6 km/h    1018.1 hpa     23.5º    0.0 mm
   19-04-2021    13:50      22.2º(+0.1)     55%      270 (W)      1.6 km/h    1018.1 hpa     23.4º    0.0 mm
   19-04-2021    13:45      22.2º(+0.3)     54%      270 (W)      3.2 km/h    1018.1 hpa     23.4º    0.0 mm
   19-04-2021    13:40      22.1º(-0.1)     56%         -         0.0 km/h    1018.2 hpa     23.4º    0.0 mm
   19-04-2021    13:35      22.0º(-0.1)     57%      247(SW)      1.6 km/h    1018.2 hpa     23.4º    0.0 mm
   19-04-2021    13:30      21.8º(-0.1)     59%         -         0.0 km/h    1018.2 hpa     23.4º    0.0 mm
   19-04-2021    13:25      21.5º(-0.3)     60%         -         0.0 km/h    1018.3 hpa     23.4º    0.0 mm
   19-04-2021    13:20      21.7º(+0.2)     58%      225(SW)      1.6 km/h    1018.4 hpa     23.4º    0.0 mm
   19-04-2021    13:15      21.6º(+0.3)     59%      202 (S)      1.6 km/h    1018.4 hpa     23.4º    0.0 mm
   19-04-2021    13:10      21.3º(+0.4)     60%         -         0.0 km/h    1018.5 hpa     23.4º    0.0 mm
   19-04-2021    13:05      21.2º(+0.4)     60%         -         0.0 km/h    1018.5 hpa     23.4º    0.0 mm
   19-04-2021    13:00      20.8º(+0.2)     63%         -         0.0 km/h    1018.7 hpa     23.4º    0.0 mm
   19-04-2021    12:55      20.3º(-0.0)     63%         -         0.0 km/h    1018.7 hpa     23.4º    0.0 mm
   19-04-2021    12:50      20.1º(-0.1)     62%         -         0.0 km/h    1018.8 hpa     23.4º    0.0 mm
   19-04-2021    12:45      19.9º(-0.1)     64%      225(SW)      1.6 km/h    1018.7 hpa     23.4º    0.0 mm
   19-04-2021    12:40      19.4º(-0.3)     65%         -         0.0 km/h    1018.8 hpa     23.4º    0.0 mm
   19-04-2021    12:35      19.2º(-0.4)     65%      247(SW)      3.2 km/h    1018.9 hpa     23.4º    0.0 mm
   19-04-2021    12:30      19.1º(-0.7)     67%         -         0.0 km/h    1018.9 hpa     23.3º    0.0 mm
   19-04-2021    12:25      19.1º(-0.5)     65%      202 (S)      3.2 km/h    1019.1 hpa     23.3º    0.0 mm
   19-04-2021    12:20      19.1º(-0.6)     66%      202 (S)      1.6 km/h    1019.0 hpa     23.3º    0.0 mm
   19-04-2021    12:15      18.9º(-0.7)     67%         -         0.0 km/h    1019.0 hpa     23.4º    0.0 mm
   19-04-2021    12:10      18.7º(-0.9)     68%         -         0.0 km/h    1019.1 hpa     23.4º    0.0 mm
   19-04-2021    12:05      18.7º(-0.7)     67%         -         0.0 km/h    1019.1 hpa     23.4º    0.0 mm
   19-04-2021    12:00      18.7º(-0.4)     69%         -         0.0 km/h    1019.2 hpa     23.3º    0.0 mm
   19-04-2021    11:55      18.6º(-0.1)     69%         -         0.0 km/h    1019.2 hpa     23.3º    0.0 mm
   19-04-2021    11:50      18.5º(+0.1)     69%         -         0.0 km/h    1019.1 hpa     23.3º    0.0 mm
   19-04-2021    11:45      18.3º(-0.1)     70%         -         0.0 km/h    1019.2 hpa     23.3º    0.0 mm
   19-04-2021    11:40      18.1º(-0.6)     71%         -         0.0 km/h    1019.2 hpa     23.3º    0.0 mm
   19-04-2021    11:35      17.8º(-0.6)     73%         -         0.0 km/h    1019.3 hpa     23.3º    0.0 mm
   19-04-2021    11:30      17.4º(-0.8)     75%         -         0.0 km/h    1019.2 hpa     23.2º    0.0 mm
   19-04-2021    11:25      17.1º(-0.9)     74%         -         0.0 km/h    1019.2 hpa     23.2º    0.0 mm
   19-04-2021    11:20      17.0º(-0.6)     75%         -         0.0 km/h    1019.3 hpa     23.2º    0.0 mm
   19-04-2021    11:15      16.8º(-0.5)     77%         -         0.0 km/h    1019.2 hpa     23.1º    0.0 mm
   19-04-2021    11:10      16.4º(-0.8)     77%         -         0.0 km/h    1019.3 hpa     23.1º    0.0 mm
   19-04-2021    11:05      16.2º(-0.9)     77%         -         0.0 km/h    1019.4 hpa     23.1º    0.0 mm
   19-04-2021    11:00      16.2º(-0.6)     77%         -         0.0 km/h    1019.2 hpa     23.1º    0.0 mm
   19-04-2021    10:55      16.0º(-0.8)     78%         -         0.0 km/h    1019.2 hpa     23.1º    0.0 mm
   19-04-2021    10:50      15.9º(-0.7)     78%         -         0.0 km/h    1019.2 hpa     23.1º    0.0 mm
   19-04-2021    10:45      15.8º(-0.5)     77%         -         0.0 km/h    1019.2 hpa     23.1º    0.0 mm
   19-04-2021    10:40      15.8º(-0.3)     79%         -         0.0 km/h    1019.3 hpa     23.1º    0.0 mm
   19-04-2021    10:35      15.7º(-0.3)     79%         -         0.0 km/h    1019.3 hpa     23.1º    0.0 mm
   19-04-2021    10:30      15.6º(-0.1)     79%         -         0.0 km/h    1019.2 hpa     23.1º    0.0 mm
   19-04-2021    10:25      15.6º(+0.1)     80%         -         0.0 km/h    1019.1 hpa     23.1º    0.0 mm
   19-04-2021    10:20      15.4º(-0.0)     80%         -         0.0 km/h    1019.1 hpa     23.1º    0.0 mm
   19-04-2021    10:15      15.3º(-0.0)     80%         -         0.0 km/h    1019.1 hpa     23.1º    0.0 mm
   19-04-2021    10:10      15.2º(-0.1)     81%         -         0.0 km/h    1019.0 hpa     23.1º    0.0 mm
   19-04-2021    10:05      15.1º(-0.0)     80%         -         0.0 km/h    1019.1 hpa     23.1º    0.0 mm
   19-04-2021    10:00      15.1º(+0.1)     80%         -         0.0 km/h    1018.9 hpa     23.1º    0.0 mm
   19-04-2021    09:55      15.1º(+0.2)     81%         -         0.0 km/h    1019.1 hpa     23.1º    0.0 mm
   19-04-2021    09:50      15.1º(+0.5)     81%         -         0.0 km/h    1019.1 hpa     23.1º    0.0 mm
   19-04-2021    09:45      15.0º(+0.7)     80%         -         0.0 km/h    1019.1 hpa     23.1º    0.0 mm
   19-04-2021    09:40      15.0º(+0.9)     80%         -         0.0 km/h    1019.1 hpa     23.1º    0.0 mm
   19-04-2021    09:35      15.1º(+1.3)     80%         -         0.0 km/h    1019.1 hpa     23.1º    0.0 mm
   19-04-2021    09:30      15.1º(+1.3)     80%         -         0.0 km/h    1019.0 hpa     23.1º    0.0 mm
   19-04-2021    09:25      15.1º(+1.4)     79%         -         0.0 km/h    1018.9 hpa     23.2º    0.0 mm
   19-04-2021    09:20      15.0º(+1.3)     80%         -         0.0 km/h    1018.9 hpa     23.2º    0.0 mm
   19-04-2021    09:15      14.9º(+1.2)     80%         -         0.0 km/h    1019.0 hpa     23.2º    0.0 mm
   19-04-2021    09:10      14.8º(+1.2)     80%         -         0.0 km/h    1019.0 hpa     23.3º    0.0 mm
   19-04-2021    09:05      14.7º(+1.3)     80%         -         0.0 km/h    1018.9 hpa     23.3º    0.0 mm
   19-04-2021    09:00      14.6º(+1.4)     79%         -         0.0 km/h    1018.9 hpa     23.4º    0.0 mm
   19-04-2021    08:55      14.6º(+1.5)     80%         -         0.0 km/h    1018.8 hpa     23.5º    0.0 mm
   19-04-2021    08:50      14.4º(+1.4)     80%         -         0.0 km/h    1018.7 hpa     23.6º    0.0 mm
   19-04-2021    08:45      14.4º(+1.5)     80%         -         0.0 km/h    1018.7 hpa     23.7º    0.0 mm
   19-04-2021    08:40      14.2º(+1.3)     80%         -         0.0 km/h    1018.7 hpa     23.7º    0.0 mm
   19-04-2021    08:35      14.1º(+1.2)     80%         -         0.0 km/h    1018.7 hpa     23.7º    0.0 mm
   19-04-2021    08:30      14.1º(+1.2)     79%         -         0.0 km/h    1018.8 hpa     23.7º    0.0 mm
   19-04-2021    08:25      14.0º(+1.2)     79%         -         0.0 km/h    1018.8 hpa     23.7º    0.0 mm
   19-04-2021    08:20      13.9º(+1.3)     79%         -         0.0 km/h    1018.8 hpa     23.7º    0.0 mm
   19-04-2021    08:15      13.9º(+1.6)     79%         -         0.0 km/h    1018.8 hpa     23.7º    0.0 mm
   19-04-2021    08:10      13.8º(+1.6)     79%         -         0.0 km/h    1018.7 hpa     23.7º    0.0 mm
   19-04-2021    08:05      13.7º(+1.5)     79%         -         0.0 km/h    1018.7 hpa     23.7º    0.0 mm
   19-04-2021    08:00      13.8º(+1.5)     79%         -         0.0 km/h    1018.7 hpa     23.7º    0.0 mm
   19-04-2021    07:55      13.8º(+1.3)     79%         -         0.0 km/h    1018.7 hpa     23.7º    0.0 mm
   19-04-2021    07:50      13.8º(+1.2)     79%         -         0.0 km/h    1018.6 hpa     23.7º    0.0 mm
   19-04-2021    07:45      13.8º(+1.2)     78%         -         0.0 km/h    1018.6 hpa     23.6º    0.0 mm
   19-04-2021    07:40      13.8º(+1.2)     78%         -         0.0 km/h    1018.4 hpa     23.6º    0.0 mm
   19-04-2021    07:35      13.9º(+1.3)     77%         -         0.0 km/h    1018.4 hpa     23.6º    0.0 mm
   19-04-2021    07:30      14.1º(+1.6)     76%         -         0.0 km/h    1018.3 hpa     23.6º    0.0 mm
   19-04-2021    07:25      14.4º(+1.9)     75%         -         0.0 km/h    1018.4 hpa     23.6º    0.0 mm
   19-04-2021    07:20      14.7º(+2.1)     74%         -         0.0 km/h    1018.2 hpa     23.5º    0.0 mm
   19-04-2021    07:15      14.7º(+2.1)     74%         -         0.0 km/h    1018.2 hpa     23.5º    0.0 mm
   19-04-2021    07:10      14.7º(+2.2)     75%         -         0.0 km/h    1018.2 hpa     23.5º    0.0 mm
   19-04-2021    07:05      14.6º(+2.3)     75%         -         0.0 km/h    1018.1 hpa     23.5º    0.0 mm
   19-04-2021    07:00      14.6º(+2.3)     74%         -         0.0 km/h    1018.1 hpa     23.5º    0.0 mm
   19-04-2021    06:55      14.6º(+2.3)     74%         -         0.0 km/h    1018.2 hpa     23.5º    0.0 mm
   19-04-2021    06:50      14.7º(+2.5)     74%         -         0.0 km/h    1018.1 hpa     23.5º    0.0 mm
   19-04-2021    06:45      14.8º(+2.6)     74%         -         0.0 km/h    1018.2 hpa     23.5º    0.0 mm
   19-04-2021    06:40      14.9º(+2.8)     74%         -         0.0 km/h    1018.2 hpa     23.5º    0.0 mm
   19-04-2021    06:35      14.9º(+2.7)     74%         -         0.0 km/h    1018.2 hpa     23.5º    0.0 mm
   19-04-2021    06:30      14.9º(+2.8)     74%         -         0.0 km/h    1018.2 hpa     23.5º    0.0 mm
   19-04-2021    06:25      14.9º(+2.8)     73%         -         0.0 km/h    1018.1 hpa     23.5º    0.0 mm
   19-04-2021    06:20      14.9º(+2.7)     73%         -         0.0 km/h    1018.1 hpa     23.5º    0.0 mm
   19-04-2021    06:15      14.8º(+2.5)     73%         -         0.0 km/h    1018.1 hpa     23.5º    0.0 mm
   19-04-2021    06:10      14.8º(+2.5)     73%         -         0.0 km/h    1018.2 hpa     23.5º    0.0 mm
   19-04-2021    06:05      14.8º(+2.4)     73%         -         0.0 km/h    1018.2 hpa     23.5º    0.0 mm
   19-04-2021    06:00      14.8º(+2.4)     73%         -         0.0 km/h    1018.2 hpa     23.5º    0.0 mm
   19-04-2021    05:55      14.8º(+2.4)     73%         -         0.0 km/h    1018.2 hpa     23.5º    0.0 mm
   19-04-2021    05:50      14.8º(+2.6)     73%         -         0.0 km/h    1018.2 hpa     23.5º    0.0 mm
   19-04-2021    05:45      14.8º(+2.5)     73%         -         0.0 km/h    1018.2 hpa     23.6º    0.0 mm
   19-04-2021    05:40      14.8º(+2.5)     73%         -         0.0 km/h    1018.2 hpa     23.6º    0.0 mm
   19-04-2021    05:35      14.8º(+2.4)     72%         -         0.0 km/h    1018.2 hpa     23.6º    0.0 mm
   19-04-2021    05:30      14.8º(+2.2)     72%         -         0.0 km/h    1018.3 hpa     23.6º    0.0 mm
   19-04-2021    05:25      14.8º(+2.1)     72%         -         0.0 km/h    1018.2 hpa     23.6º    0.0 mm
   19-04-2021    05:20      14.9º(+2.1)     72%         -         0.0 km/h    1018.2 hpa     23.6º    0.0 mm
   19-04-2021    05:15      14.9º(+2.0)     72%         -         0.0 km/h    1018.3 hpa     23.6º    0.0 mm
   19-04-2021    05:10      14.9º(+1.7)     71%         -         0.0 km/h    1018.3 hpa     23.6º    0.0 mm
   19-04-2021    05:05      15.1º(+1.7)     71%         -         0.0 km/h    1018.3 hpa     23.6º    0.0 mm
   19-04-2021    05:00      15.2º(+1.6)     71%         -         0.0 km/h    1018.4 hpa     23.6º    0.0 mm
   19-04-2021    04:55      15.2º(+1.5)     70%         -         0.0 km/h    1018.3 hpa     23.6º    0.0 mm
   19-04-2021    04:50      15.3º(+1.5)     70%         -         0.0 km/h    1018.3 hpa     23.6º    0.0 mm
   19-04-2021    04:45      15.4º(+1.5)     69%         -         0.0 km/h    1018.3 hpa     23.6º    0.0 mm
   19-04-2021    04:40      15.4º(+1.4)     69%         -         0.0 km/h    1018.3 hpa     23.6º    0.0 mm
   19-04-2021    04:35      15.4º(+1.4)     69%         -         0.0 km/h    1018.4 hpa     23.6º    0.0 mm
   19-04-2021    04:30      15.4º(+1.4)     68%         -         0.0 km/h    1018.3 hpa     23.6º    0.0 mm
   19-04-2021    04:25      15.4º(+1.5)     68%         -         0.0 km/h    1018.4 hpa     23.6º    0.0 mm
   19-04-2021    04:20      15.4º(+1.4)     68%         -         0.0 km/h    1018.4 hpa     23.6º    0.0 mm
   19-04-2021    04:15      15.4º(+1.5)     68%         -         0.0 km/h    1018.4 hpa     23.6º    0.0 mm
   19-04-2021    04:10      15.4º(+1.5)     67%         -         0.0 km/h    1018.4 hpa     23.7º    0.0 mm
   19-04-2021    04:05      15.5º(+1.5)     67%         -         0.0 km/h    1018.5 hpa     23.7º    0.0 mm
   19-04-2021    04:00      15.6º(+1.5)     66%         -         0.0 km/h    1018.5 hpa     23.7º    0.0 mm
   19-04-2021    03:55      15.7º(+1.5)     65%         -         0.0 km/h    1018.5 hpa     23.7º    0.0 mm
   19-04-2021    03:50      15.8º(+1.6)     65%         -         0.0 km/h    1018.5 hpa     23.7º    0.0 mm
   19-04-2021    03:45      15.9º(+1.7)     64%         -         0.0 km/h    1018.6 hpa     23.7º    0.0 mm
   19-04-2021    03:40      16.1º(+1.8)     64%         -         0.0 km/h    1018.6 hpa     23.7º    0.0 mm
   19-04-2021    03:35      16.3º(+2.0)     63%         -         0.0 km/h    1018.6 hpa     23.7º    0.0 mm
   19-04-2021    03:30      16.4º(+2.1)     61%         -         0.0 km/h    1018.5 hpa     23.7º    0.0 mm
   19-04-2021    03:25      16.6º(+2.2)     60%         -         0.0 km/h    1018.6 hpa     23.7º    0.0 mm
   19-04-2021    03:20      16.6º(+2.2)     60%         -         0.0 km/h    1018.7 hpa     23.7º    0.0 mm
   19-04-2021    03:15      16.7º(+2.3)     60%         -         0.0 km/h    1018.7 hpa     23.7º    0.0 mm
   19-04-2021    03:10      16.7º(+2.3)     59%         -         0.0 km/h    1018.8 hpa     23.7º    0.0 mm
   19-04-2021    03:05      16.7º(+2.3)     61%         -         0.0 km/h    1018.8 hpa     23.7º    0.0 mm
   19-04-2021    03:00      16.7º(+2.2)     59%         -         0.0 km/h    1018.9 hpa     23.7º    0.0 mm
   19-04-2021    02:55      16.7º(+2.1)     59%         -         0.0 km/h    1018.9 hpa     23.7º    0.0 mm
   19-04-2021    02:50      16.7º(+2.0)     59%         -         0.0 km/h    1018.9 hpa     23.7º    0.0 mm
   19-04-2021    02:45      16.7º(+1.9)     59%         -         0.0 km/h    1018.9 hpa     23.8º    0.0 mm
   19-04-2021    02:40      16.8º(+1.9)     59%         -         0.0 km/h    1019.1 hpa     23.8º    0.0 mm
   19-04-2021    02:35      16.8º(+1.8)     59%         -         0.0 km/h    1019.0 hpa     23.8º    0.0 mm
   19-04-2021    02:30      16.8º(+1.6)     59%         -         0.0 km/h    1019.1 hpa     23.8º    0.0 mm
   19-04-2021    02:25      16.8º(+1.6)     59%         -         0.0 km/h    1019.1 hpa     23.8º    0.0 mm
   19-04-2021    02:20      16.8º(+1.6)     59%         -         0.0 km/h    1019.1 hpa     23.8º    0.0 mm
   19-04-2021    02:15      16.8º(+1.6)     58%         -         0.0 km/h    1019.1 hpa     23.8º    0.0 mm
   19-04-2021    02:10      16.8º(+1.5)     58%         -         0.0 km/h    1019.0 hpa     23.8º    0.0 mm
   19-04-2021    02:05      16.8º(+1.5)     57%         -         0.0 km/h    1019.0 hpa     23.8º    0.0 mm
   19-04-2021    02:00      16.8º(+1.3)     57%         -         0.0 km/h    1019.1 hpa     23.8º    0.0 mm
   19-04-2021    01:55      16.8º(----)     57%         -         0.0 km/h    1019.1 hpa     23.8º    0.0 mm
   19-04-2021    01:50      16.8º(----)     57%         -         0.0 km/h    1019.1 hpa     23.9º    0.0 mm
   19-04-2021    01:45      16.8º(----)     56%      090 (E)      1.6 km/h    1019.1 hpa     23.9º    0.0 mm
   19-04-2021    01:40      16.9º(----)     57%         -         0.0 km/h    1019.1 hpa     23.9º    0.0 mm
   19-04-2021    01:35      17.0º(----)     56%         -         0.0 km/h    1019.2 hpa     23.9º    0.0 mm
   19-04-2021    01:30      17.2º(----)     55%         -         0.0 km/h    1019.2 hpa     23.9º    0.0 mm
   19-04-2021    01:25      17.4º(----)     55%      045(NE)      1.6 km/h    1019.2 hpa     23.9º    0.0 mm
   19-04-2021    01:20      17.5º(----)     54%         -         0.0 km/h    1019.2 hpa     23.9º    0.0 mm
   19-04-2021    01:15      17.5º(----)     54%         -         0.0 km/h    1019.3 hpa     23.9º    0.0 mm
   19-04-2021    01:10      17.6º(----)     54%      045(NE)      1.6 km/h    1019.3 hpa     24.0º    0.0 mm
   19-04-2021    01:05      17.8º(----)     53%      000 (N)      1.6 km/h    1019.4 hpa     24.0º    0.0 mm
   19-04-2021    01:00      17.8º(----)     53%         -         0.0 km/h    1019.4 hpa     24.0º    0.0 mm
   19-04-2021    00:55      18.0º(----)     53%         -         0.0 km/h    1019.4 hpa     24.0º    0.0 mm
   19-04-2021    00:50      18.2º(----)     52%         -         0.0 km/h    1019.4 hpa     24.0º    0.0 mm
   19-04-2021    00:45      18.3º(----)     52%      315(NW)      1.6 km/h    1019.3 hpa     24.1º    0.0 mm
   19-04-2021    00:40      18.3º(----)     51%      337(NW)      4.8 km/h    1019.4 hpa     24.1º    0.0 mm
   19-04-2021    00:35      18.4º(----)     51%      315(NW)      4.8 km/h    1019.4 hpa     24.1º    0.0 mm
   19-04-2021    00:30      18.4º(----)     51%      315(NW)      4.8 km/h    1019.4 hpa     24.1º    0.0 mm
   19-04-2021    00:25      18.5º(----)     50%      315(NW)      4.8 km/h    1019.5 hpa     24.1º    0.0 mm
   19-04-2021    00:20      18.6º(----)     50%      315(NW)      4.8 km/h    1019.5 hpa     24.1º    0.0 mm
   19-04-2021    00:15      18.6º(----)     49%      315(NW)      4.8 km/h    1019.5 hpa     24.1º    0.0 mm
   19-04-2021    00:10      18.7º(----)     49%      315(NW)      4.8 km/h    1019.5 hpa     24.1º    0.0 mm
   19-04-2021    00:05      18.7º(----)     49%      315(NW)      6.4 km/h    1019.5 hpa     24.0º    0.0 mm
   19-04-2021    00:00      18.7º(----)     49%      315(NW)      4.8 km/h    1019.5 hpa     24.0º    0.0 mm